Terminal Aerodrome Forecast
Issued by NWS Bismarck, ND

Home | Current Version | Previous Version | Graphics & Text | Print | Product List | Glossary On
Versions: 1 2 3 4 5 6 7 8 9 10 11 12 13 14 15 16 17 18 19 20 21 22 23 24 25 26 27 28 29
617
FTUS43 KBIS 211502 AAC
TAFBIS
TAF AMD
KBIS 211502Z 2115/2212 32015G25KT P6SM SCT015
      TEMPO 2115/2117 BKN015
     FM211700 31011KT P6SM FEW020
     FM220100 VRB03KT P6SM FEW300
     FM220500 17007KT P6SM BKN250=

USA.gov is the U.S. government's official web portal to all federal, state and local government web resources and services.